Coral Coast — WDF5120 — position and weather

sailwx.info

Track history (hours):
 
Tides and Currents Weather Stations Pressure Air Temp Water Temp Dewpoint Dewpoint Depression Visibility Wind Speed Wind Dir Waves Ship Positions

Coral Coast

Owner: Dann MarineTowing, LC., Chesapeake City, MD. More information available from US FCC via Universal Licensing System and Coast Guard Vessel Documentation Center.

Last reported at 2016-Sep-30 10:34 UTC. Time now 2016-Sep-30 11:51 UTC.
Position N 40°37' W 074°03'.

Length 70 m; draft 5.3 m.

Type: Tug. MMSI: 367459570.

Date/timePositionNaut miles runAvg speedWind from/ knotsBaromVisibWave heightAir tempDewpointWater temp
2016-Sep-30 10:34N 40°37' W 074°03'12 5.9
2016-Sep-30 08:33N 40°47' W 073°55'4 1.9
2016-Sep-30 06:33N 40°46' W 073°51'0 0.0
2016-Sep-30 03:33N 40°46' W 073°51'0 0.0
2016-Sep-30 02:33N 40°46' W 073°51'0 0.0
2016-Sep-29 23:33N 40°46' W 073°51'0 0.0
2016-Sep-29 21:33N 40°46' W 073°51'0 0.0
2016-Sep-29 20:33N 40°46' W 073°51'0 0.0
2016-Sep-29 19:33N 40°46' W 073°51'0 0.0
2016-Sep-29 16:33N 40°46' W 073°51'0 0.0
2016-Sep-29 15:33N 40°46' W 073°51'0 0.0
2016-Sep-29 14:33N 40°46' W 073°51'0 0.0
2016-Sep-29 13:33N 40°46' W 073°51'0 0.0
2016-Sep-29 07:33N 40°46' W 073°51'0 0.0
2016-Sep-29 00:33N 40°46' W 073°51'0 0.0
2016-Sep-28 21:33N 40°46' W 073°51'0 0.0
2016-Sep-28 19:33N 40°46' W 073°51'0 0.0
2016-Sep-28 16:33N 40°46' W 073°51'0 0.0
2016-Sep-28 15:33N 40°46' W 073°51'1 0.5
2016-Sep-28 12:32N 40°47' W 073°52'6 1.6
2016-Sep-28 08:33N 40°53' W 073°56'7 0.2
2016-Sep-26 08:15N 40°60' W 073°53'14 2.5
2016-Sep-26 02:33N 40°46' W 073°51'0 0.0
2016-Sep-26 01:33N 40°46' W 073°51'0 0.0
2016-Sep-26 00:33N 40°46' W 073°51'0 0.0
2016-Sep-25 21:33N 40°46' W 073°51'0 0.0
2016-Sep-25 17:33N 40°46' W 073°51'0 0.0
2016-Sep-25 16:33N 40°46' W 073°51'0 0.0
2016-Sep-25 15:33N 40°46' W 073°51'0 0.0
2016-Sep-25 14:33N 40°46' W 073°51'0 0.0
2016-Sep-25 12:33N 40°46' W 073°51'0 0.0
2016-Sep-25 11:33N 40°46' W 073°51'0 0.0
2016-Sep-25 10:33N 40°46' W 073°51'2 1.7
2016-Sep-25 09:33N 40°47' W 073°52'9 4.5
2016-Sep-25 07:33N 40°42' W 074°02'12 4.0
2016-Sep-25 04:33N 40°53' W 073°56'  
2016-Sep-22 12:34N 40°40' W 074°00'9 1.2
2016-Sep-22 04:33N 40°46' W 073°51'0 0.0
2016-Sep-22 03:33N 40°46' W 073°51'0 0.0
2016-Sep-22 00:33N 40°46' W 073°51'0 0.0
2016-Sep-21 23:33N 40°46' W 073°51'0 0.0
2016-Sep-21 22:33N 40°46' W 073°51'0 0.0
2016-Sep-21 19:33N 40°46' W 073°51'0 0.0
2016-Sep-21 16:33N 40°46' W 073°51'0 0.0
2016-Sep-21 09:33N 40°46' W 073°51'0 0.0
2016-Sep-21 08:33N 40°46' W 073°51'5 1.7
2016-Sep-21 05:34N 40°46' W 073°57'2 1.2
2016-Sep-21 03:34N 40°46' W 074°00'7 6.8
2016-Sep-21 02:33N 40°52' W 073°56'8 0.6
2016-Sep-20 13:20N 41°00' W 073°54'  
Track history (hours):
 
Tides and Currents Weather Stations Pressure Air Temp Water Temp Dewpoint Dewpoint Depression Visibility Wind Speed Wind Dir Waves Ship Positions

Coral Coast

Owner: Dann MarineTowing, LC., Chesapeake City, MD. More information available from US FCC via Universal Licensing System and Coast Guard Vessel Documentation Center.

Last reported at 2016-Sep-30 10:34 UTC. Time now 2016-Sep-30 11:51 UTC.
Position N 40°37' W 074°03'.

Length 70 m; draft 5.3 m.

Type: Tug. MMSI: 367459570.

Date/timePositionNaut miles runAvg speedWind from/ knotsBaromVisibWave heightAir tempDewpointWater temp
2016-Sep-30 10:34N 40°37' W 074°03'12 5.9
2016-Sep-30 08:33N 40°47' W 073°55'4 1.9
2016-Sep-30 06:33N 40°46' W 073°51'0 0.0
2016-Sep-30 03:33N 40°46' W 073°51'0 0.0
2016-Sep-30 02:33N 40°46' W 073°51'0 0.0
2016-Sep-29 23:33N 40°46' W 073°51'0 0.0
2016-Sep-29 21:33N 40°46' W 073°51'0 0.0
2016-Sep-29 20:33N 40°46' W 073°51'0 0.0
2016-Sep-29 19:33N 40°46' W 073°51'0 0.0
2016-Sep-29 16:33N 40°46' W 073°51'0 0.0
2016-Sep-29 15:33N 40°46' W 073°51'0 0.0
2016-Sep-29 14:33N 40°46' W 073°51'0 0.0
2016-Sep-29 13:33N 40°46' W 073°51'0 0.0
2016-Sep-29 07:33N 40°46' W 073°51'0 0.0
2016-Sep-29 00:33N 40°46' W 073°51'0 0.0
2016-Sep-28 21:33N 40°46' W 073°51'0 0.0
2016-Sep-28 19:33N 40°46' W 073°51'0 0.0
2016-Sep-28 16:33N 40°46' W 073°51'0 0.0
2016-Sep-28 15:33N 40°46' W 073°51'1 0.5
2016-Sep-28 12:32N 40°47' W 073°52'6 1.6
2016-Sep-28 08:33N 40°53' W 073°56'7 0.2
2016-Sep-26 08:15N 40°60' W 073°53'14 2.5
2016-Sep-26 02:33N 40°46' W 073°51'0 0.0
2016-Sep-26 01:33N 40°46' W 073°51'0 0.0
2016-Sep-26 00:33N 40°46' W 073°51'0 0.0
2016-Sep-25 21:33N 40°46' W 073°51'0 0.0
2016-Sep-25 17:33N 40°46' W 073°51'0 0.0
2016-Sep-25 16:33N 40°46' W 073°51'0 0.0
2016-Sep-25 15:33N 40°46' W 073°51'0 0.0
2016-Sep-25 14:33N 40°46' W 073°51'0 0.0
2016-Sep-25 12:33N 40°46' W 073°51'0 0.0
2016-Sep-25 11:33N 40°46' W 073°51'0 0.0
2016-Sep-25 10:33N 40°46' W 073°51'2 1.7
2016-Sep-25 09:33N 40°47' W 073°52'9 4.5
2016-Sep-25 07:33N 40°42' W 074°02'12 4.0
2016-Sep-25 04:33N 40°53' W 073°56'  
2016-Sep-22 12:34N 40°40' W 074°00'9 1.2
2016-Sep-22 04:33N 40°46' W 073°51'0 0.0
2016-Sep-22 03:33N 40°46' W 073°51'0 0.0
2016-Sep-22 00:33N 40°46' W 073°51'0 0.0
2016-Sep-21 23:33N 40°46' W 073°51'0 0.0
2016-Sep-21 22:33N 40°46' W 073°51'0 0.0
2016-Sep-21 19:33N 40°46' W 073°51'0 0.0
2016-Sep-21 16:33N 40°46' W 073°51'0 0.0
2016-Sep-21 09:33N 40°46' W 073°51'0 0.0
2016-Sep-21 08:33N 40°46' W 073°51'5 1.7
2016-Sep-21 05:34N 40°46' W 073°57'2 1.2
2016-Sep-21 03:34N 40°46' W 074°00'7 6.8
2016-Sep-21 02:33N 40°52' W 073°56'8 0.6
2016-Sep-20 13:20N 41°00' W 073°54'  

Dump ship's entire track history